createdAt,value
2023-12-09T00:00:24.132Z,1.26
2023-12-09T00:02:27.553Z,1.26
2023-12-09T00:04:32.235Z,1.26
2023-12-09T00:06:35.560Z,1.24
2023-12-09T00:08:38.077Z,1.25
2023-12-09T00:10:47.387Z,1.24
2023-12-09T00:12:50.456Z,1.24
2023-12-09T00:14:53.755Z,1.23
2023-12-09T00:17:16.196Z,1.22
2023-12-09T00:19:22.527Z,1.24
2023-12-09T00:21:33.071Z,1.26
2023-12-09T00:24:04.212Z,1.27
2023-12-09T00:26:06.777Z,1.27
2023-12-09T00:28:09.934Z,1.25
2023-12-09T00:30:12.538Z,1.24
2023-12-09T00:32:15.593Z,1.24
2023-12-09T00:34:18.780Z,1.24
2023-12-09T00:36:21.903Z,1.26
2023-12-09T00:38:26.325Z,1.27
2023-12-09T00:40:28.395Z,1.29
2023-12-09T00:42:31.478Z,1.31
2023-12-09T00:44:34.577Z,1.32
2023-12-09T00:46:37.587Z,1.34
2023-12-09T00:48:40.867Z,1.35
2023-12-09T00:50:44.256Z,1.38
2023-12-09T00:52:47.333Z,1.39
2023-12-09T00:54:50.757Z,1.40
2023-12-09T00:56:53.865Z,1.41
2023-12-09T00:58:55.914Z,1.43
2023-12-09T01:00:59.387Z,1.45
2023-12-09T01:03:02.509Z,1.45
2023-12-09T01:05:05.496Z,1.48
2023-12-09T01:07:08.535Z,1.48
2023-12-09T01:09:10.658Z,1.50
2023-12-09T01:11:15.105Z,1.50
2023-12-09T01:13:18.082Z,1.49
2023-12-09T01:15:21.304Z,1.49
2023-12-09T01:17:24.423Z,1.48
2023-12-09T01:19:27.466Z,1.49
2023-12-09T01:21:30.540Z,1.50
2023-12-09T01:23:32.651Z,1.51
2023-12-09T01:25:35.852Z,1.51
2023-12-09T01:27:40.228Z,1.51
2023-12-09T01:29:43.218Z,1.52
2023-12-09T01:31:46.228Z,1.54
2023-12-09T01:33:49.374Z,1.53
2023-12-09T01:35:52.493Z,1.54
2023-12-09T01:37:55.574Z,1.56
2023-12-09T01:39:58.606Z,1.56
2023-12-09T01:42:03.541Z,1.56
2023-12-09T01:44:07.979Z,1.57
2023-12-09T01:46:13.324Z,1.57
2023-12-09T01:48:17.256Z,1.57
2023-12-09T01:50:20.897Z,1.58
2023-12-09T01:52:24.252Z,1.58
2023-12-09T01:54:28.648Z,1.58
2023-12-09T01:56:31.949Z,1.57
2023-12-09T01:58:35.728Z,1.57
2023-12-09T02:00:41.968Z,1.56
2023-12-09T02:02:46.686Z,1.56
2023-12-09T02:04:50.893Z,1.58
2023-12-09T02:06:53.912Z,1.58
2023-12-09T02:08:57.617Z,1.59
2023-12-09T02:11:10.951Z,1.61
2023-12-09T02:13:20.445Z,1.60
2023-12-09T02:15:28.050Z,1.60
2023-12-09T02:17:36.626Z,1.59
2023-12-09T02:19:39.685Z,1.59
2023-12-09T02:21:58.610Z,1.62
2023-12-09T02:24:03.017Z,1.63
2023-12-09T02:26:13.850Z,1.65
2023-12-09T02:28:21.997Z,1.68
2023-12-09T02:30:32.116Z,1.69
2023-12-09T02:32:37.180Z,1.70
2023-12-09T02:34:42.925Z,1.73
2023-12-09T02:36:50.130Z,1.74
2023-12-09T02:38:55.579Z,1.77
2023-12-09T02:41:00.956Z,1.78
2023-12-09T02:43:05.089Z,1.77
2023-12-09T02:45:09.453Z,1.80
2023-12-09T02:47:14.760Z,1.82
2023-12-09T02:49:18.087Z,1.83
2023-12-09T02:51:21.200Z,1.84
2023-12-09T02:53:24.251Z,1.84
2023-12-09T02:55:27.232Z,1.86
2023-12-09T02:57:31.635Z,1.87
2023-12-09T02:59:33.643Z,1.90
2023-12-09T03:01:36.636Z,1.92
2023-12-09T03:03:39.772Z,1.94
2023-12-09T03:05:42.977Z,1.96
2023-12-09T03:07:45.972Z,1.98
2023-12-09T03:09:49.092Z,2.00
2023-12-09T03:11:52.249Z,2.00
2023-12-09T03:13:56.662Z,2.01
2023-12-09T03:16:01.372Z,2.01
2023-12-09T03:18:04.769Z,2.02
2023-12-09T03:20:10.241Z,2.03
2023-12-09T03:22:13.326Z,2.05
2023-12-09T03:24:16.380Z,2.06
2023-12-09T03:26:20.495Z,2.08
2023-12-09T03:28:23.524Z,2.11
2023-12-09T03:30:27.938Z,2.13
2023-12-09T03:32:31.188Z,2.14
2023-12-09T03:34:34.451Z,2.15
2023-12-09T03:36:37.714Z,2.16
2023-12-09T03:38:40.769Z,2.17
2023-12-09T03:40:43.951Z,2.16
2023-12-09T03:42:46.027Z,2.18
2023-12-09T03:44:49.097Z,2.19
2023-12-09T03:46:53.617Z,2.20
2023-12-09T03:48:58.018Z,2.23
2023-12-09T03:51:01.152Z,2.23
2023-12-09T03:53:04.190Z,2.24
2023-12-09T03:55:07.762Z,2.25
2023-12-09T03:57:13.626Z,2.24
2023-12-09T03:59:16.655Z,2.24
2023-12-09T04:01:20.251Z,2.23
2023-12-09T04:03:24.724Z,2.24
2023-12-09T04:05:26.969Z,2.24
2023-12-09T04:07:29.938Z,2.26
2023-12-09T04:09:33.065Z,2.26
2023-12-09T04:11:36.170Z,2.28
2023-12-09T04:13:39.216Z,2.29
2023-12-09T04:15:43.062Z,2.30
2023-12-09T04:17:45.128Z,2.32
2023-12-09T04:19:50.010Z,2.35
2023-12-09T04:21:53.895Z,2.37
2023-12-09T04:23:56.929Z,2.41
2023-12-09T04:26:00.349Z,2.44
2023-12-09T04:28:03.417Z,2.48
2023-12-09T04:30:07.711Z,2.50
2023-12-09T04:32:10.865Z,2.52
2023-12-09T04:34:13.862Z,2.56
2023-12-09T04:36:18.337Z,2.59
2023-12-09T04:38:21.367Z,2.61
2023-12-09T04:40:23.429Z,2.64
2023-12-09T04:42:26.935Z,2.66
2023-12-09T04:44:30.129Z,2.67
2023-12-09T04:46:33.501Z,2.69
2023-12-09T04:48:36.668Z,2.71
2023-12-09T04:50:39.844Z,2.73
2023-12-09T04:52:44.210Z,2.78
2023-12-09T04:54:47.350Z,2.82
2023-12-09T04:56:50.347Z,2.86
2023-12-09T04:58:53.364Z,2.91
2023-12-09T05:00:56.483Z,2.95
2023-12-09T05:02:59.886Z,2.98
2023-12-09T05:05:03.008Z,3.02
2023-12-09T05:07:06.312Z,3.06
2023-12-09T05:09:11.340Z,3.10
2023-12-09T05:11:14.354Z,3.14
2023-12-09T05:13:17.380Z,3.17
2023-12-09T05:15:20.498Z,3.20
2023-12-09T05:17:23.666Z,3.24
2023-12-09T05:19:26.733Z,3.26
2023-12-09T05:21:35.536Z,3.29
2023-12-09T05:23:39.608Z,3.33
2023-12-09T05:25:45.531Z,3.36
2023-12-09T05:27:49.058Z,3.39
2023-12-09T05:29:52.035Z,3.42
2023-12-09T05:31:55.089Z,3.46
2023-12-09T05:33:58.330Z,3.49
2023-12-09T05:36:00.517Z,3.50
2023-12-09T05:38:03.620Z,3.52
2023-12-09T05:40:08.002Z,3.55
2023-12-09T05:42:12.582Z,3.58
2023-12-09T05:44:15.547Z,3.60
2023-12-09T05:46:19.806Z,3.64
2023-12-09T05:48:22.944Z,3.67
2023-12-09T05:50:25.991Z,3.69
2023-12-09T05:52:29.325Z,3.72
2023-12-09T05:54:33.336Z,3.75
2023-12-09T05:56:35.445Z,3.79
2023-12-09T05:58:40.160Z,3.83
2023-12-09T06:00:43.257Z,3.88
2023-12-09T06:02:46.270Z,3.92
2023-12-09T06:04:48.307Z,3.95
2023-12-09T06:06:51.410Z,3.99
2023-12-09T06:08:53.444Z,4.02
2023-12-09T06:10:56.511Z,4.04
2023-12-09T06:12:59.489Z,4.06
2023-12-09T06:15:03.885Z,4.07
2023-12-09T06:17:07.042Z,4.09
2023-12-09T06:19:10.271Z,4.11
2023-12-09T06:21:21.154Z,4.12
2023-12-09T06:23:23.137Z,4.13
2023-12-09T06:25:26.178Z,4.14
2023-12-09T06:27:28.252Z,4.14
2023-12-09T06:29:31.245Z,4.14
2023-12-09T06:31:35.589Z,4.14
2023-12-09T06:33:38.833Z,4.14
2023-12-09T06:35:41.906Z,4.16
2023-12-09T06:37:44.901Z,4.18
2023-12-09T06:39:48.020Z,4.20
2023-12-09T06:41:51.034Z,4.21
2023-12-09T06:43:53.967Z,4.22
2023-12-09T06:45:56.920Z,4.24
2023-12-09T06:48:01.424Z,4.26
2023-12-09T06:50:04.896Z,4.30
2023-12-09T06:52:07.910Z,4.30
2023-12-09T06:54:11.652Z,4.33
2023-12-09T06:56:21.097Z,4.35
2023-12-09T06:58:24.161Z,4.38
2023-12-09T07:00:27.113Z,4.40
2023-12-09T07:02:40.731Z,4.40
2023-12-09T07:04:52.861Z,4.42
2023-12-09T07:07:01.818Z,4.43
2023-12-09T07:09:04.999Z,4.44
2023-12-09T07:11:08.107Z,4.46
2023-12-09T07:13:11.100Z,4.47
2023-12-09T07:15:13.500Z,4.46
2023-12-09T07:17:16.694Z,4.47
2023-12-09T07:19:20.029Z,4.48
2023-12-09T07:21:24.507Z,4.48
2023-12-09T07:23:27.899Z,4.49
2023-12-09T07:25:30.970Z,4.50
2023-12-09T07:27:34.097Z,4.51
2023-12-09T07:29:37.442Z,4.51
2023-12-09T07:31:40.485Z,4.53
2023-12-09T07:33:43.702Z,4.54
2023-12-09T07:35:46.760Z,4.54
2023-12-09T07:37:51.092Z,4.55
2023-12-09T07:39:54.122Z,4.57
2023-12-09T07:41:57.175Z,4.57
2023-12-09T07:43:59.189Z,4.59
2023-12-09T07:46:02.876Z,4.59
2023-12-09T07:48:06.703Z,4.60
2023-12-09T07:50:11.492Z,4.61
2023-12-09T07:52:14.633Z,4.63
2023-12-09T07:54:19.053Z,4.63
2023-12-09T07:56:22.199Z,4.64
2023-12-09T07:58:25.663Z,4.65
2023-12-09T08:00:28.885Z,4.68
2023-12-09T08:02:31.954Z,4.68
2023-12-09T08:04:35.006Z,4.71
2023-12-09T08:06:38.133Z,4.73
2023-12-09T08:08:40.200Z,4.75
2023-12-09T08:10:44.605Z,4.77
2023-12-09T08:12:47.707Z,4.78
2023-12-09T08:14:50.743Z,4.79
2023-12-09T08:16:54.960Z,4.82
2023-12-09T08:18:58.307Z,4.82
2023-12-09T08:21:03.151Z,4.85
2023-12-09T08:23:06.356Z,4.86
2023-12-09T08:25:10.205Z,4.86
2023-12-09T08:27:14.659Z,4.87
2023-12-09T08:29:17.886Z,4.87
2023-12-09T08:31:20.939Z,4.88
2023-12-09T08:33:24.093Z,4.89
2023-12-09T08:35:27.298Z,4.91
2023-12-09T08:37:30.336Z,4.92
2023-12-09T08:39:33.305Z,4.93
2023-12-09T08:41:36.424Z,4.94
2023-12-09T08:43:40.768Z,4.96
2023-12-09T08:45:43.814Z,4.97
2023-12-09T08:47:47.212Z,4.98
2023-12-09T08:49:50.367Z,5.00
2023-12-09T08:51:53.442Z,5.01
2023-12-09T08:53:56.786Z,5.03
2023-12-09T08:55:59.843Z,5.04
2023-12-09T08:58:03.314Z,5.04
2023-12-09T09:00:09.523Z,5.05
2023-12-09T09:02:12.749Z,5.07
2023-12-09T09:04:15.955Z,5.09
2023-12-09T09:06:19.066Z,5.10
2023-12-09T09:08:22.165Z,5.14
2023-12-09T09:10:25.193Z,5.14
2023-12-09T09:12:28.861Z,5.15
2023-12-09T09:14:32.202Z,5.14
2023-12-09T09:16:36.721Z,5.14
2023-12-09T09:18:40.135Z,5.11
2023-12-09T09:20:44.110Z,5.11
2023-12-09T09:22:48.153Z,5.10
2023-12-09T09:24:51.405Z,5.10
2023-12-09T09:26:54.413Z,5.11
2023-12-09T09:28:59.609Z,5.09
2023-12-09T09:31:02.669Z,5.09
2023-12-09T09:33:07.586Z,5.09
2023-12-09T09:35:11.266Z,5.10
2023-12-09T09:37:15.675Z,5.11
2023-12-09T09:39:19.527Z,5.14
2023-12-09T09:41:24.232Z,5.16
2023-12-09T09:43:32.718Z,5.16
2023-12-09T09:45:36.628Z,5.18
2023-12-09T09:47:41.184Z,5.19
2023-12-09T09:49:48.978Z,5.22
2023-12-09T09:51:55.221Z,5.23
2023-12-09T09:54:10.054Z,5.26
2023-12-09T09:56:14.036Z,5.28
2023-12-09T09:58:18.178Z,5.31
2023-12-09T10:00:22.959Z,5.31
2023-12-09T10:02:27.217Z,5.31
2023-12-09T10:04:30.435Z,5.31
2023-12-09T10:06:36.460Z,5.32
2023-12-09T10:08:40.167Z,5.35
2023-12-09T10:10:43.576Z,5.40
2023-12-09T10:12:47.638Z,5.45
2023-12-09T10:14:51.222Z,5.50
2023-12-09T10:16:55.301Z,5.55
2023-12-09T10:18:58.895Z,5.60
2023-12-09T10:21:02.051Z,5.62
2023-12-09T10:23:07.008Z,5.65
2023-12-09T10:25:10.336Z,5.67
2023-12-09T10:27:13.417Z,5.64
2023-12-09T10:29:16.862Z,5.61
2023-12-09T10:31:20.106Z,5.56
2023-12-09T10:33:23.851Z,5.51
2023-12-09T10:35:27.166Z,5.45
2023-12-09T10:37:30.334Z,5.40
2023-12-09T10:39:35.273Z,5.35
2023-12-09T10:41:38.604Z,5.29
2023-12-09T10:43:42.080Z,5.25
2023-12-09T10:45:45.518Z,5.22
2023-12-09T10:47:49.485Z,5.18
2023-12-09T10:49:53.377Z,5.16
2023-12-09T10:51:56.403Z,5.13
2023-12-09T10:53:58.462Z,5.09
2023-12-09T10:56:03.030Z,5.08
2023-12-09T10:58:07.460Z,5.08
2023-12-09T11:00:15.769Z,5.05
2023-12-09T11:02:21.467Z,5.02
2023-12-09T11:04:25.882Z,4.99
2023-12-09T11:06:32.067Z,4.96
2023-12-09T11:08:38.023Z,4.95
2023-12-09T11:10:42.581Z,4.95
2023-12-09T11:12:49.225Z,4.94
2023-12-09T11:14:52.298Z,4.94
2023-12-09T11:16:55.410Z,4.95
2023-12-09T11:19:00.366Z,4.95
2023-12-09T11:21:04.501Z,4.96
2023-12-09T11:23:10.294Z,4.99
2023-12-09T11:25:22.530Z,5.02
2023-12-09T11:27:27.373Z,5.09
2023-12-09T11:29:31.722Z,5.14
2023-12-09T11:31:39.689Z,5.21
2023-12-09T11:33:42.945Z,5.28
2023-12-09T11:35:47.314Z,5.35
2023-12-09T11:37:51.415Z,5.40
2023-12-09T11:39:56.455Z,5.44
2023-12-09T11:42:01.925Z,5.46
2023-12-09T11:44:05.927Z,5.50
2023-12-09T11:46:09.619Z,5.52
2023-12-09T11:48:13.436Z,5.54
2023-12-09T11:50:16.444Z,5.54
2023-12-09T11:52:20.517Z,5.56
2023-12-09T11:54:23.529Z,5.57
2023-12-09T11:56:26.206Z,5.56
2023-12-09T11:58:29.241Z,5.55
2023-12-09T12:00:32.398Z,5.56
2023-12-09T12:02:36.820Z,5.56
2023-12-09T12:04:40.405Z,5.57
2023-12-09T12:06:43.439Z,5.57
2023-12-09T12:08:48.899Z,5.55
2023-12-09T12:10:52.338Z,5.53
2023-12-09T12:12:55.502Z,5.50
2023-12-09T12:14:58.032Z,5.46
2023-12-09T12:17:01.445Z,5.41
2023-12-09T12:19:05.999Z,5.37
2023-12-09T12:21:08.361Z,5.31
2023-12-09T12:23:19.900Z,5.27
2023-12-09T12:25:29.647Z,5.23
2023-12-09T12:27:35.248Z,5.20
2023-12-09T12:29:39.406Z,5.16
2023-12-09T12:31:42.555Z,5.13
2023-12-09T12:33:45.719Z,5.09
2023-12-09T12:35:53.032Z,5.09
2023-12-09T12:37:58.401Z,5.07
2023-12-09T12:40:01.457Z,5.06
2023-12-09T12:42:04.797Z,5.05
2023-12-09T12:44:19.579Z,5.03
2023-12-09T12:46:22.864Z,5.00
2023-12-09T12:48:26.196Z,4.98
2023-12-09T12:50:29.392Z,4.96
2023-12-09T12:52:33.711Z,4.93
2023-12-09T12:54:36.753Z,4.91
2023-12-09T12:56:39.854Z,4.88
2023-12-09T12:58:42.833Z,4.84
2023-12-09T13:00:50.099Z,4.81
2023-12-09T13:02:53.526Z,4.76
2023-12-09T13:04:56.505Z,4.74
2023-12-09T13:06:59.485Z,4.70
2023-12-09T13:09:05.219Z,4.67
2023-12-09T13:11:08.493Z,4.64
2023-12-09T13:13:11.491Z,4.62
2023-12-09T13:15:14.772Z,4.60
2023-12-09T13:19:21.047Z,4.56
2023-12-09T13:21:24.115Z,4.53
2023-12-09T13:23:27.117Z,4.50
2023-12-09T13:25:33.350Z,4.48
2023-12-09T13:27:37.567Z,4.47
2023-12-09T13:29:40.831Z,4.44
2023-12-09T13:31:44.271Z,4.42
2023-12-09T13:33:46.391Z,4.39
2023-12-09T13:35:50.174Z,4.37
2023-12-09T13:37:53.202Z,4.36
2023-12-09T13:39:56.423Z,4.34
2023-12-09T13:42:01.290Z,4.34
2023-12-09T13:44:04.826Z,4.34
2023-12-09T13:46:07.437Z,4.34
2023-12-09T13:48:11.001Z,4.34
2023-12-09T13:50:14.088Z,4.33
2023-12-09T13:52:19.761Z,4.33
2023-12-09T13:54:24.110Z,4.31
2023-12-09T13:56:27.098Z,4.30
2023-12-09T13:58:31.492Z,4.27
2023-12-09T14:00:34.570Z,4.26
2023-12-09T14:02:40.961Z,4.25
2023-12-09T14:04:44.771Z,4.25
2023-12-09T14:06:47.840Z,4.23
2023-12-09T14:08:51.135Z,4.23
2023-12-09T14:10:54.112Z,4.22
2023-12-09T14:12:56.167Z,4.23
2023-12-09T14:15:00.659Z,4.25
2023-12-09T14:17:03.901Z,4.24
2023-12-09T14:19:06.998Z,4.25
2023-12-09T14:21:10.010Z,4.25
2023-12-09T14:23:12.956Z,4.26
2023-12-09T14:25:15.055Z,4.26
2023-12-09T14:27:18.100Z,4.27
2023-12-09T14:29:21.252Z,4.27
2023-12-09T14:31:25.917Z,4.27
2023-12-09T14:33:29.015Z,4.27
2023-12-09T14:35:32.589Z,4.28
2023-12-09T14:37:34.712Z,4.28
2023-12-09T14:39:37.924Z,4.29
2023-12-09T14:41:41.644Z,4.30
2023-12-09T14:43:46.920Z,4.30
2023-12-09T14:45:50.439Z,4.31
2023-12-09T14:48:04.755Z,4.29
2023-12-09T14:50:13.954Z,4.30
2023-12-09T14:52:17.139Z,4.29
2023-12-09T14:54:20.748Z,4.29
2023-12-09T14:56:24.252Z,4.29
2023-12-09T14:58:28.115Z,4.27
2023-12-09T15:00:31.495Z,4.27
2023-12-09T15:02:34.572Z,4.25
2023-12-09T15:04:39.222Z,4.25
2023-12-09T15:06:42.352Z,4.24
2023-12-09T15:08:45.921Z,4.23
2023-12-09T15:10:50.275Z,4.22
2023-12-09T15:12:53.461Z,4.21
2023-12-09T15:14:58.056Z,4.21
2023-12-09T15:17:01.412Z,4.18
2023-12-09T15:19:04.886Z,4.16
2023-12-09T15:21:09.709Z,4.14
2023-12-09T15:23:12.739Z,4.13
2023-12-09T15:25:18.109Z,4.10
2023-12-09T15:27:25.569Z,4.10
2023-12-09T15:29:29.501Z,4.07
2023-12-09T15:31:32.542Z,4.03
2023-12-09T15:33:36.023Z,4.01
2023-12-09T15:35:39.409Z,4.01
2023-12-09T15:37:44.796Z,3.99
2023-12-09T15:39:48.123Z,3.98
2023-12-09T15:41:52.611Z,3.96
2023-12-09T15:43:55.677Z,3.94
2023-12-09T15:45:58.894Z,3.92
2023-12-09T15:48:02.419Z,3.91
2023-12-09T15:50:06.290Z,3.92
2023-12-09T15:52:09.317Z,3.91
2023-12-09T15:54:15.017Z,3.92
2023-12-09T15:56:18.142Z,3.92
2023-12-09T15:58:20.503Z,3.93
2023-12-09T16:00:23.727Z,3.94
2023-12-09T16:02:28.255Z,3.94
2023-12-09T16:04:31.652Z,3.93
2023-12-09T16:06:34.803Z,3.94
2023-12-09T16:08:39.332Z,3.93
2023-12-09T16:10:43.680Z,3.93
2023-12-09T16:12:46.963Z,3.93
2023-12-09T16:14:53.834Z,3.90
2023-12-09T16:16:56.922Z,3.88
2023-12-09T16:19:00.079Z,3.87
2023-12-09T16:21:04.985Z,3.87
2023-12-09T16:23:08.656Z,3.88
2023-12-09T16:25:11.941Z,3.86
2023-12-09T16:27:17.371Z,3.87
2023-12-09T16:29:20.422Z,3.88
2023-12-09T16:31:24.404Z,3.88
2023-12-09T16:33:27.590Z,3.87
2023-12-09T16:35:30.924Z,3.86
2023-12-09T16:37:35.301Z,3.84
2023-12-09T16:39:38.485Z,3.81
2023-12-09T16:41:41.759Z,3.80
2023-12-09T16:43:46.154Z,3.80
2023-12-09T16:45:49.214Z,3.83
2023-12-09T16:47:52.603Z,3.85
2023-12-09T16:49:55.769Z,3.85
2023-12-09T16:51:58.881Z,3.85
2023-12-09T16:54:01.990Z,3.88
2023-12-09T16:56:05.414Z,3.89
2023-12-09T16:58:10.178Z,3.91
2023-12-09T17:00:15.769Z,3.93
2023-12-09T17:02:18.960Z,3.96
2023-12-09T17:04:21.745Z,3.97
2023-12-09T17:06:25.085Z,3.98
2023-12-09T17:08:31.241Z,3.99
2023-12-09T17:10:35.826Z,4.01
2023-12-09T17:12:40.598Z,4.05
2023-12-09T17:14:42.763Z,4.07
2023-12-09T17:16:47.651Z,4.09
2023-12-09T17:18:51.011Z,4.12
2023-12-09T17:20:54.125Z,4.14
2023-12-09T17:22:58.322Z,4.16
2023-12-09T17:25:04.815Z,4.17
2023-12-09T17:27:08.695Z,4.18
2023-12-09T17:29:12.287Z,4.20
2023-12-09T17:31:15.638Z,4.23
2023-12-09T17:33:20.362Z,4.23
2023-12-09T17:35:29.417Z,4.23
2023-12-09T17:37:32.579Z,4.23
2023-12-09T17:39:36.116Z,4.23
2023-12-09T17:41:39.476Z,4.23
2023-12-09T17:43:42.865Z,4.22
2023-12-09T17:45:45.946Z,4.23
2023-12-09T17:47:50.150Z,4.26
2023-12-09T17:49:55.003Z,4.27
2023-12-09T17:52:01.003Z,4.28
2023-12-09T17:54:05.606Z,4.31
2023-12-09T17:56:10.482Z,4.31
2023-12-09T17:58:12.579Z,4.31
2023-12-09T18:00:16.248Z,4.32
2023-12-09T18:02:18.507Z,4.33
2023-12-09T18:04:23.647Z,4.32
2023-12-09T18:06:37.780Z,4.32
2023-12-09T18:08:56.682Z,4.30
2023-12-09T18:11:10.197Z,4.29
2023-12-09T18:13:21.842Z,4.29
2023-12-09T18:15:40.681Z,4.28
2023-12-09T18:18:02.308Z,4.28
2023-12-09T18:20:16.026Z,4.27
2023-12-09T18:22:33.562Z,4.27
2023-12-09T18:24:50.044Z,4.27
2023-12-09T18:27:02.230Z,4.29
2023-12-09T18:29:16.922Z,4.30
2023-12-09T18:31:31.456Z,4.32
2023-12-09T18:33:50.227Z,4.32
2023-12-09T18:36:04.360Z,4.30
2023-12-09T18:38:18.009Z,4.31
2023-12-09T18:40:37.066Z,4.31
2023-12-09T18:42:55.066Z,4.30
2023-12-09T18:45:08.865Z,4.28
2023-12-09T18:47:24.431Z,4.27
2023-12-09T18:49:36.460Z,4.27
2023-12-09T18:51:56.959Z,4.24
2023-12-09T18:54:10.748Z,4.22
2023-12-09T18:56:20.749Z,4.21
2023-12-09T18:58:35.057Z,4.20
2023-12-09T19:00:48.054Z,4.18
2023-12-09T19:03:05.675Z,4.18
2023-12-09T19:05:18.501Z,4.18
2023-12-09T19:07:26.913Z,4.19
2023-12-09T19:10:21.010Z,4.19
2023-12-09T19:12:30.917Z,4.20
2023-12-09T19:14:39.470Z,4.20
2023-12-09T19:16:53.018Z,4.19
2023-12-09T19:19:03.641Z,4.18
2023-12-09T19:21:11.971Z,4.16
2023-12-09T19:23:21.711Z,4.14
2023-12-09T19:25:35.247Z,4.13
2023-12-09T19:27:47.544Z,4.10
2023-12-09T19:30:02.927Z,4.08
2023-12-09T19:32:18.087Z,4.06
2023-12-09T19:34:30.719Z,4.06
2023-12-09T19:36:51.820Z,4.05
2023-12-09T19:39:11.557Z,4.04
2023-12-09T19:41:31.386Z,4.02
2023-12-09T19:43:53.212Z,4.01
2023-12-09T19:46:09.073Z,3.99
2023-12-09T19:48:21.378Z,3.97
2023-12-09T19:50:40.686Z,3.95
2023-12-09T19:52:53.734Z,3.93
2023-12-09T19:55:04.502Z,3.91
2023-12-09T19:57:19.086Z,3.90
2023-12-09T19:59:36.552Z,3.90
2023-12-09T20:01:54.230Z,3.90
2023-12-09T20:04:03.895Z,3.91
2023-12-09T20:06:20.495Z,3.89
2023-12-09T20:08:32.916Z,3.89
2023-12-09T20:10:44.918Z,3.87
2023-12-09T20:12:52.954Z,3.89
2023-12-09T20:14:56.255Z,3.90
2023-12-09T20:17:00.310Z,3.91
2023-12-09T20:19:06.752Z,3.93
2023-12-09T20:21:19.975Z,3.93
2023-12-09T20:23:33.270Z,3.95
2023-12-09T20:25:53.892Z,3.97
2023-12-09T20:28:06.914Z,3.98
2023-12-09T20:30:11.627Z,4.01
2023-12-09T20:32:17.042Z,4.02
2023-12-09T20:34:21.118Z,4.05
2023-12-09T20:36:24.462Z,4.07
2023-12-09T20:38:29.675Z,4.09
2023-12-09T20:40:34.759Z,4.11
2023-12-09T20:42:38.182Z,4.11
2023-12-09T20:44:44.558Z,4.12
2023-12-09T20:46:48.221Z,4.14
2023-12-09T20:48:52.502Z,4.15
2023-12-09T20:50:54.567Z,4.16
2023-12-09T20:52:57.832Z,4.15
2023-12-09T20:55:01.278Z,4.15
2023-12-09T20:57:04.731Z,4.17
2023-12-09T20:59:11.019Z,4.15
2023-12-09T21:01:18.612Z,4.16
2023-12-09T21:03:20.908Z,4.15
2023-12-09T21:05:24.839Z,4.17
2023-12-09T21:07:30.420Z,4.20
2023-12-09T21:09:33.528Z,4.20
2023-12-09T21:11:38.966Z,4.22
2023-12-09T21:13:42.608Z,4.23
2023-12-09T21:15:45.900Z,4.24
2023-12-09T21:17:50.568Z,4.25
2023-12-09T21:19:54.025Z,4.25
2023-12-09T21:21:58.953Z,4.26
2023-12-09T21:24:02.211Z,4.26
2023-12-09T21:26:05.730Z,4.25
2023-12-09T21:28:11.623Z,4.27
2023-12-09T21:30:15.510Z,4.27
2023-12-09T21:32:19.077Z,4.29
2023-12-09T21:34:23.616Z,4.28
2023-12-09T21:36:26.803Z,4.29
2023-12-09T21:38:30.861Z,4.30
2023-12-09T21:40:34.875Z,4.31
2023-12-09T21:42:37.007Z,4.32
2023-12-09T21:44:40.023Z,4.31
2023-12-09T21:46:43.604Z,4.32
2023-12-09T21:48:47.252Z,4.32
2023-12-09T21:50:51.990Z,4.31
2023-12-09T21:52:55.471Z,4.31
2023-12-09T21:54:59.703Z,4.31
2023-12-09T21:57:03.589Z,4.33
2023-12-09T21:59:06.764Z,4.33
2023-12-09T22:01:10.705Z,4.33
2023-12-09T22:03:14.644Z,4.35
2023-12-09T22:05:17.927Z,4.36
2023-12-09T22:07:21.746Z,4.38
2023-12-09T22:09:24.864Z,4.38
2023-12-09T22:11:27.924Z,4.41
2023-12-09T22:13:30.367Z,4.42
2023-12-09T22:15:34.025Z,4.43
2023-12-09T22:17:38.079Z,4.43
2023-12-09T22:19:41.201Z,4.43
2023-12-09T22:21:45.321Z,4.42
2023-12-09T22:23:54.611Z,4.42
2023-12-09T22:25:57.677Z,4.40
2023-12-09T22:28:00.769Z,4.39
2023-12-09T22:30:03.941Z,4.38
2023-12-09T22:32:08.860Z,4.38
2023-12-09T22:34:12.604Z,4.39
2023-12-09T22:36:20.919Z,4.36
2023-12-09T22:38:24.832Z,4.36
2023-12-09T22:40:29.746Z,4.36
2023-12-09T22:42:34.530Z,4.36
2023-12-09T22:44:37.647Z,4.35
2023-12-09T22:46:41.206Z,4.34
2023-12-09T22:48:44.552Z,4.33
2023-12-09T22:50:48.060Z,4.33
2023-12-09T22:52:51.114Z,4.32
2023-12-09T22:54:54.209Z,4.30
2023-12-09T22:56:58.675Z,4.30
2023-12-09T22:59:02.000Z,4.29
2023-12-09T23:01:05.563Z,4.28
2023-12-09T23:03:08.927Z,4.28
2023-12-09T23:05:13.118Z,4.27
2023-12-09T23:07:16.888Z,4.27
2023-12-09T23:09:20.200Z,4.25
2023-12-09T23:11:23.525Z,4.25
2023-12-09T23:13:28.254Z,4.24
2023-12-09T23:15:32.311Z,4.23
2023-12-09T23:17:37.220Z,4.22
2023-12-09T23:19:42.164Z,4.22
2023-12-09T23:21:45.291Z,4.20
2023-12-09T23:23:48.401Z,4.18
2023-12-09T23:25:58.864Z,4.18
2023-12-09T23:28:05.858Z,4.16
2023-12-09T23:30:11.321Z,4.14
2023-12-09T23:32:14.953Z,4.13
2023-12-09T23:34:17.645Z,4.12
2023-12-09T23:36:21.393Z,4.10
2023-12-09T23:38:24.823Z,4.09
2023-12-09T23:40:27.933Z,4.08
2023-12-09T23:42:31.883Z,4.07
2023-12-09T23:44:35.302Z,4.05
2023-12-09T23:46:39.668Z,4.03
2023-12-09T23:48:42.781Z,4.03
2023-12-09T23:50:46.516Z,4.01
2023-12-09T23:52:49.509Z,4.01
2023-12-09T23:54:52.513Z,4.02
2023-12-09T23:56:55.553Z,4.01
2023-12-09T23:58:58.671Z,3.99
